Time;durP1;ratioP1;P1;durP2;ratioP2;P2;SDS_P1;SDS_P2;PMS_P1;PMS_P2;Temp;Humidity;BMP_temperature;BMP_pressure;BME280_temperature;BME280_humidity;BME280_pressure;Samples;Min_cycle;Max_cycle;Signal;HPM_P1;HPM_P2
2020/12/23 00:00:26;;;;;;;4.82;1.00;;;12.40;56.60;;;;;;5012348;28;20156;-71
2020/12/23 00:03:07;;;;;;;1.17;1.00;;;12.40;55.50;;;;;;5013305;28;20045;-73
2020/12/23 00:05:34;;;;;;;6.70;1.30;;;12.50;54.90;;;;;;5014015;28;20056;-71
2020/12/23 00:08:01;;;;;;;1.83;1.20;;;12.50;54.20;;;;;;5011456;28;20564;-68
2020/12/23 00:10:28;;;;;;;1.00;0.80;;;12.60;53.60;;;;;;5018955;28;20050;-73
2020/12/23 00:12:55;;;;;;;2.58;0.70;;;12.50;53.50;;;;;;5015760;28;20054;-70
2020/12/23 00:15:21;;;;;;;2.97;1.05;;;12.60;52.90;;;;;;5013708;28;20057;-73
2020/12/23 00:17:48;;;;;;;0.85;0.75;;;12.60;52.50;;;;;;5012995;28;20147;-71
2020/12/23 00:20:16;;;;;;;2.92;0.68;;;12.50;52.80;;;;;;5019143;28;20124;-70
2020/12/23 00:22:43;;;;;;;1.30;0.73;;;12.50;53.10;;;;;;5010621;28;20115;-70
2020/12/23 00:25:10;;;;;;;1.35;0.80;;;12.50;53.40;;;;;;5010009;28;20056;-70
2020/12/23 00:27:37;;;;;;;0.57;0.57;;;12.60;52.30;;;;;;5010812;28;20504;-70
2020/12/23 00:30:04;;;;;;;1.38;0.82;;;12.60;52.40;;;;;;5011174;28;20057;-70
2020/12/23 00:32:31;;;;;;;0.68;0.60;;;12.60;51.70;;;;;;5014887;28;20496;-70
2020/12/23 00:34:58;;;;;;;1.50;1.00;;;12.60;51.70;;;;;;5009360;28;20053;-69
2020/12/23 00:37:26;;;;;;;3.33;0.90;;;12.70;50.90;;;;;;5011760;28;20044;-70
2020/12/23 00:39:53;;;;;;;1.25;0.90;;;12.60;51.70;;;;;;5016381;28;20064;-72
2020/12/23 00:42:23;;;;;;;1.20;1.00;;;12.70;50.90;;;;;;5011108;28;20177;-70
2020/12/23 00:44:50;;;;;;;1.85;0.80;;;12.70;50.70;;;;;;5010707;28;20050;-70
2020/12/23 00:47:17;;;;;;;1.70;1.02;;;12.70;50.80;;;;;;5005605;28;20042;-73
2020/12/23 00:49:44;;;;;;;1.33;0.68;;;12.70;51.10;;;;;;5008121;28;20527;-75
2020/12/23 00:52:10;;;;;;;1.05;0.80;;;12.60;51.70;;;;;;5011313;28;20037;-71
2020/12/23 00:54:39;;;;;;;2.08;0.80;;;12.70;51.80;;;;;;5009256;28;20061;-71
2020/12/23 00:57:06;;;;;;;1.60;0.90;;;12.70;51.50;;;;;;5013498;28;20132;-71
2020/12/23 00:59:33;;;;;;;0.93;0.80;;;12.70;51.50;;;;;;5012552;28;20064;-71
2020/12/23 01:02:00;;;;;;;2.05;0.82;;;12.70;51.10;;;;;;5012094;28;20060;-70
2020/12/23 01:04:27;;;;;;;0.90;0.68;;;12.70;51.10;;;;;;5008072;28;20045;-71
2020/12/23 01:06:54;;;;;;;1.10;0.70;;;12.70;51.00;;;;;;5011783;28;20057;-70
2020/12/23 01:09:22;;;;;;;1.70;0.80;;;12.70;50.50;;;;;;5012059;28;21608;-70
2020/12/23 01:11:50;;;;;;;1.30;1.02;;;12.80;50.00;;;;;;5008354;28;20058;-70
2020/12/23 01:14:18;;;;;;;4.28;0.73;;;12.80;49.60;;;;;;5008003;28;20045;-72
2020/12/23 01:16:45;;;;;;;2.53;1.30;;;12.90;48.60;;;;;;5010358;28;20548;-71
2020/12/23 01:19:12;;;;;;;1.38;0.90;;;12.90;48.60;;;;;;5013549;28;20168;-70
2020/12/23 01:21:39;;;;;;;2.15;0.95;;;12.90;48.80;;;;;;5010844;28;20521;-68
2020/12/23 01:24:06;;;;;;;1.55;0.85;;;12.90;48.00;;;;;;5012298;28;20464;-69
2020/12/23 01:26:32;;;;;;;1.73;1.00;;;12.90;48.60;;;;;;5008413;28;20050;-71
2020/12/23 01:29:00;;;;;;;1.00;0.70;;;13.00;47.90;;;;;;5013770;28;20564;-69
2020/12/23 01:31:27;;;;;;;0.85;0.50;;;13.00;48.00;;;;;;5012513;28;20049;-70
2020/12/23 01:34:03;;;;;;;0.73;0.65;;;13.00;47.10;;;;;;5010310;28;20572;-73
2020/12/23 01:36:30;;;;;;;1.42;0.80;;;13.00;46.80;;;;;;5009048;28;20069;-71
2020/12/23 01:38:57;;;;;;;2.70;0.75;;;13.10;46.30;;;;;;5012537;28;20053;-72
2020/12/23 01:41:23;;;;;;;1.52;0.60;;;13.00;46.60;;;;;;5009400;28;20046;-69
2020/12/23 01:43:52;;;;;;;1.63;0.88;;;13.10;46.50;;;;;;5008430;28;20519;-72
2020/12/23 01:46:31;;;;;;;0.50;0.50;;;13.20;45.30;;;;;;5006682;28;20144;-70
2020/12/23 01:49:01;;;;;;;0.50;0.47;;;13.10;45.00;;;;;;5008912;28;21336;-70
2020/12/23 01:51:28;;;;;;;1.42;0.65;;;13.20;44.10;;;;;;5007030;28;20050;-71
2020/12/23 01:53:56;;;;;;;2.47;0.60;;;13.20;44.10;;;;;;5010122;28;20045;-76
2020/12/23 01:56:23;;;;;;;0.70;0.50;;;13.30;43.80;;;;;;5009817;28;20055;-71
2020/12/23 01:58:50;;;;;;;1.92;0.80;;;13.30;42.70;;;;;;5012306;28;20052;-70
2020/12/23 02:01:20;;;;;;;0.80;0.70;;;13.30;43.50;;;;;;5010691;28;20063;-70
2020/12/23 02:03:47;;;;;;;0.93;0.50;;;13.20;44.10;;;;;;5010563;28;20817;-70
2020/12/23 02:06:15;;;;;;;1.77;0.73;;;13.20;44.20;;;;;;5006819;28;20583;-71
2020/12/23 02:08:43;;;;;;;1.33;0.60;;;13.30;43.60;;;;;;5010701;28;20629;-71
2020/12/23 02:11:11;;;;;;;0.90;0.50;;;13.30;42.70;;;;;;5008096;28;20045;-71
2020/12/23 02:13:40;;;;;;;0.82;0.43;;;13.30;42.90;;;;;;5010632;28;20399;-72
2020/12/23 02:16:08;;;;;;;1.85;0.70;;;13.40;41.60;;;;;;5005060;28;20049;-71
2020/12/23 02:18:36;;;;;;;2.50;0.60;;;13.40;40.90;;;;;;5010619;28;20042;-71
2020/12/23 02:21:13;;;;;;;1.75;0.60;;;13.40;41.60;;;;;;5009032;28;20049;-70
2020/12/23 02:23:43;;;;;;;0.57;0.40;;;13.50;40.10;;;;;;5010597;28;20060;-70
2020/12/23 02:26:09;;;;;;;1.00;0.50;;;13.50;40.00;;;;;;5008393;28;20066;-70
2020/12/23 02:28:37;;;;;;;1.27;0.70;;;13.60;39.90;;;;;;5016998;28;20077;-70
2020/12/23 02:31:05;;;;;;;1.13;0.40;;;13.60;39.40;;;;;;5010724;28;20049;-74
2020/12/23 02:33:32;;;;;;;1.23;0.65;;;13.60;39.10;;;;;;5013413;28;20055;-71
2020/12/23 02:35:59;;;;;;;0.68;0.50;;;13.50;40.20;;;;;;5016427;28;20050;-72
2020/12/23 02:38:25;;;;;;;1.77;0.60;;;13.50;40.60;;;;;;5010933;28;20050;-70
2020/12/23 02:40:53;;;;;;;0.50;0.50;;;13.60;40.20;;;;;;5007738;28;20051;-70
2020/12/23 02:43:20;;;;;;;1.48;0.90;;;13.50;40.80;;;;;;5011244;28;20533;-70
2020/12/23 02:45:47;;;;;;;0.98;0.60;;;13.40;41.70;;;;;;5011469;28;20054;-71
2020/12/23 02:48:14;;;;;;;1.75;0.68;;;13.40;42.20;;;;;;5008322;28;20465;-72
2020/12/23 02:50:41;;;;;;;0.43;0.40;;;13.40;43.20;;;;;;5011694;28;20503;-71
2020/12/23 02:53:08;;;;;;;0.50;0.40;;;13.30;44.10;;;;;;5011457;28;20580;-71
2020/12/23 02:55:35;;;;;;;2.20;0.80;;;13.40;43.90;;;;;;5010742;28;20061;-71
2020/12/23 02:58:03;;;;;;;2.13;0.70;;;13.40;43.10;;;;;;5009772;28;20042;-76
2020/12/23 03:00:30;;;;;;;1.17;0.52;;;13.30;44.20;;;;;;5010245;28;20052;-72
2020/12/23 03:02:57;;;;;;;2.80;0.50;;;13.30;44.20;;;;;;5011573;28;20524;-74
2020/12/23 03:05:24;;;;;;;2.63;0.70;;;13.40;43.30;;;;;;5012680;28;20136;-72
2020/12/23 03:07:51;;;;;;;1.88;0.73;;;13.40;42.90;;;;;;5014136;28;20411;-71
2020/12/23 03:10:18;;;;;;;1.20;0.50;;;13.40;43.40;;;;;;5009125;28;20050;-73
2020/12/23 03:12:45;;;;;;;0.52;0.40;;;13.40;43.10;;;;;;5014099;28;20169;-76
2020/12/23 03:15:12;;;;;;;1.27;0.60;;;13.30;43.40;;;;;;5010947;28;20042;-72
2020/12/23 03:17:39;;;;;;;0.85;0.60;;;13.30;43.40;;;;;;5014958;28;20050;-72
2020/12/23 03:20:06;;;;;;;1.30;0.63;;;13.30;42.70;;;;;;5013619;28;20056;-72
2020/12/23 03:22:33;;;;;;;3.03;1.00;;;13.40;42.40;;;;;;5010957;28;20061;-72
2020/12/23 03:25:00;;;;;;;2.20;0.90;;;13.40;42.00;;;;;;5017527;28;20057;-74
2020/12/23 03:27:27;;;;;;;0.55;0.50;;;13.30;42.70;;;;;;5020919;28;20487;-72
2020/12/23 03:29:54;;;;;;;1.65;0.40;;;13.30;42.00;;;;;;5012638;28;20079;-71
2020/12/23 03:32:21;;;;;;;0.60;0.50;;;13.40;41.10;;;;;;5014338;28;20050;-74
2020/12/23 03:34:48;;;;;;;1.33;0.45;;;13.40;40.70;;;;;;5016787;28;20053;-72
2020/12/23 03:37:15;;;;;;;1.48;0.45;;;13.40;41.20;;;;;;5012007;28;20046;-74
2020/12/23 03:39:42;;;;;;;3.50;0.68;;;13.40;40.30;;;;;;5015408;28;20045;-72
2020/12/23 03:42:09;;;;;;;0.95;0.50;;;13.50;40.00;;;;;;5011339;28;20438;-73
2020/12/23 03:44:36;;;;;;;1.45;0.60;;;13.40;40.10;;;;;;5013835;28;20060;-74
2020/12/23 03:47:03;;;;;;;0.93;0.40;;;13.50;39.60;;;;;;5012859;28;20046;-73
2020/12/23 03:49:31;;;;;;;0.70;0.40;;;13.50;38.60;;;;;;5014645;28;20048;-74
2020/12/23 03:51:57;;;;;;;1.98;0.60;;;13.50;38.60;;;;;;5007966;28;20060;-74
2020/12/23 03:54:24;;;;;;;1.15;0.65;;;13.50;38.00;;;;;;5012502;28;20045;-74
2020/12/23 03:56:51;;;;;;;0.70;0.50;;;13.60;36.70;;;;;;5011165;28;20072;-73
2020/12/23 03:59:18;;;;;;;0.63;0.50;;;13.60;37.20;;;;;;5015370;28;20424;-73
2020/12/23 04:01:45;;;;;;;0.68;0.50;;;13.60;37.30;;;;;;5011473;28;20464;-74
2020/12/23 04:04:11;;;;;;;0.63;0.30;;;13.60;36.50;;;;;;5012879;28;20053;-74
2020/12/23 04:06:39;;;;;;;2.35;0.60;;;13.60;36.60;;;;;;5009855;28;20050;-73
2020/12/23 04:09:06;;;;;;;1.17;0.60;;;13.60;36.10;;;;;;5017448;28;20060;-72
2020/12/23 04:11:33;;;;;;;1.70;0.68;;;13.80;36.10;;;;;;5008825;28;20456;-72
2020/12/23 04:14:01;;;;;;;1.98;0.43;;;13.70;36.10;;;;;;5016816;28;20049;-73
2020/12/23 04:16:28;;;;;;;0.82;0.50;;;13.50;41.30;;;;;;5012512;28;20104;-71
2020/12/23 04:18:54;;;;;;;1.20;0.63;;;13.30;44.10;;;;;;5016793;28;20052;-73
2020/12/23 04:21:21;;;;;;;3.45;0.80;;;13.30;44.70;;;;;;5010373;28;20046;-72
2020/12/23 04:23:49;;;;;;;0.73;0.70;;;13.10;46.20;;;;;;5014450;28;20053;-72
2020/12/23 04:26:16;;;;;;;2.17;1.73;;;13.10;46.20;;;;;;5009595;28;20070;-72
2020/12/23 04:28:43;;;;;;;3.47;1.90;;;13.00;47.90;;;;;;5014000;28;20492;-72
2020/12/23 04:31:10;;;;;;;2.03;1.00;;;13.00;50.10;;;;;;5009732;28;20042;-73
2020/12/23 04:33:37;;;;;;;2.45;1.13;;;12.90;51.70;;;;;;5013897;28;20042;-71
2020/12/23 04:36:04;;;;;;;1.70;0.82;;;12.90;52.00;;;;;;5012816;28;20064;-70
2020/12/23 04:38:31;;;;;;;1.67;0.80;;;12.80;52.50;;;;;;5013078;28;20073;-71
2020/12/23 04:40:59;;;;;;;3.08;1.30;;;12.80;53.60;;;;;;5009937;28;20078;-71
2020/12/23 04:43:26;;;;;;;2.65;1.10;;;12.70;54.60;;;;;;5009959;28;20393;-72
2020/12/23 04:45:53;;;;;;;3.60;1.27;;;12.70;54.10;;;;;;5009984;28;20485;-72
2020/12/23 04:48:25;;;;;;;1.35;0.90;;;12.70;53.50;;;;;;5010178;28;20050;-71
2020/12/23 04:50:55;;;;;;;2.88;0.93;;;12.70;53.30;;;;;;5008684;28;20050;-72
2020/12/23 04:53:22;;;;;;;3.05;0.70;;;12.80;52.00;;;;;;5013208;28;20146;-73
2020/12/23 04:55:50;;;;;;;1.30;0.65;;;12.90;49.10;;;;;;5010126;28;20057;-72
2020/12/23 04:58:17;;;;;;;3.13;0.60;;;12.90;48.60;;;;;;5011203;28;20042;-71
2020/12/23 05:00:45;;;;;;;2.70;0.70;;;12.80;48.80;;;;;;5007655;28;20188;-71
2020/12/23 05:03:11;;;;;;;1.92;0.70;;;12.90;48.50;;;;;;5008538;28;20038;-71
2020/12/23 05:05:39;;;;;;;1.77;0.80;;;12.90;47.50;;;;;;5011534;28;20054;-71
2020/12/23 05:08:06;;;;;;;3.38;1.48;;;12.90;47.60;;;;;;5008813;28;20484;-71
2020/12/23 05:10:32;;;;;;;2.00;1.02;;;12.90;47.50;;;;;;5008742;28;20415;-71
2020/12/23 05:12:59;;;;;;;2.67;0.95;;;12.90;47.10;;;;;;5012054;28;20050;-71
2020/12/23 05:15:28;;;;;;;2.72;0.73;;;12.80;47.90;;;;;;5013046;28;20060;-71
2020/12/23 05:17:54;;;;;;;1.55;0.80;;;12.70;49.30;;;;;;5011821;28;20111;-71
2020/12/23 05:20:22;;;;;;;3.55;0.90;;;12.70;50.80;;;;;;5010671;28;20052;-72
2020/12/23 05:22:49;;;;;;;2.45;0.70;;;12.70;50.20;;;;;;5010434;28;20050;-71
2020/12/23 05:25:17;;;;;;;1.05;0.80;;;12.70;49.50;;;;;;5011483;28;20061;-71
2020/12/23 05:27:48;;;;;;;1.20;0.60;;;12.80;48.10;;;;;;5009377;28;20085;-71
2020/12/23 05:30:17;;;;;;;2.10;0.70;;;12.80;48.30;;;;;;5010529;28;20119;-71
2020/12/23 05:32:46;;;;;;;2.45;1.13;;;12.80;47.70;;;;;;5010557;28;20503;-72
2020/12/23 05:35:15;;;;;;;2.47;0.93;;;12.80;47.80;;;;;;5010286;28;20049;-71
2020/12/23 05:37:43;;;;;;;1.10;0.80;;;12.70;47.80;;;;;;5008216;28;20046;-73
2020/12/23 05:40:10;;;;;;;1.27;0.80;;;12.80;47.30;;;;;;5011043;28;20060;-72
2020/12/23 05:42:39;;;;;;;2.22;0.80;;;12.80;47.50;;;;;;5009166;28;20530;-72
2020/12/23 05:45:08;;;;;;;1.67;0.70;;;12.80;47.60;;;;;;5010984;28;20508;-71
2020/12/23 05:47:36;;;;;;;1.33;0.65;;;12.70;47.70;;;;;;5010807;28;20452;-72
2020/12/23 05:50:08;;;;;;;2.67;1.70;;;12.70;48.10;;;;;;5009041;28;20127;-72
2020/12/23 05:52:36;;;;;;;1.00;0.68;;;12.60;48.40;;;;;;5012571;28;20050;-71
2020/12/23 05:55:14;;;;;;;3.42;0.70;;;12.70;47.10;;;;;;5012077;28;20073;-71
2020/12/23 05:57:41;;;;;;;0.85;0.70;;;12.70;47.00;;;;;;5011709;28;20551;-70
2020/12/23 06:00:08;;;;;;;3.10;1.13;;;12.70;46.80;;;;;;5010082;28;20064;-72
2020/12/23 06:02:49;;;;;;;1.23;0.90;;;12.70;47.80;;;;;;5012783;28;20096;-71
2020/12/23 06:05:20;;;;;;;2.97;0.85;;;12.60;47.00;;;;;;5011774;28;20076;-69
2020/12/23 06:07:48;;;;;;;3.60;0.80;;;12.70;47.10;;;;;;5006881;28;20049;-70
2020/12/23 06:10:18;;;;;;;3.88;0.90;;;12.70;47.00;;;;;;5008008;28;20066;-71
2020/12/23 06:12:49;;;;;;;1.10;0.60;;;12.70;47.00;;;;;;5009122;28;20056;-71
2020/12/23 06:15:17;;;;;;;1.95;0.80;;;12.70;45.70;;;;;;5009631;28;20045;-71
2020/12/23 06:17:45;;;;;;;4.40;1.08;;;12.80;44.50;;;;;;5011283;28;20061;-69
2020/12/23 06:20:14;;;;;;;3.88;0.90;;;12.70;45.20;;;;;;5008402;28;20145;-70
2020/12/23 06:22:47;;;;;;;2.15;1.10;;;12.70;44.50;;;;;;5010000;28;20060;-70
2020/12/23 06:25:15;;;;;;;2.00;0.90;;;12.70;45.50;;;;;;5008575;28;20045;-71
2020/12/23 06:27:42;;;;;;;5.15;0.95;;;12.70;45.60;;;;;;5005954;28;20496;-70
2020/12/23 06:30:08;;;;;;;2.55;1.05;;;12.70;44.60;;;;;;5006831;28;20057;-71
2020/12/23 06:32:36;;;;;;;2.47;1.00;;;12.70;44.40;;;;;;5009824;28;20469;-72
2020/12/23 06:35:05;;;;;;;1.60;0.80;;;12.70;45.00;;;;;;5009168;28;20053;-72
2020/12/23 06:37:34;;;;;;;3.33;1.27;;;12.70;44.30;;;;;;5005480;28;20046;-71
2020/12/23 06:40:08;;;;;;;2.28;1.10;;;12.80;43.70;;;;;;5008950;28;20064;-71
2020/12/23 06:42:36;;;;;;;3.97;0.80;;;12.80;42.30;;;;;;5009856;28;20069;-70
2020/12/23 06:45:10;;;;;;;1.42;0.70;;;12.90;40.60;;;;;;5008801;28;20134;-70
2020/12/23 06:47:39;;;;;;;2.90;1.02;;;13.00;38.90;;;;;;5006602;28;20053;-68
2020/12/23 06:50:29;;;;;;;2.60;1.10;;;12.90;40.50;;;;;;5011672;28;20049;-71
2020/12/23 06:52:57;;;;;;;3.53;1.25;;;12.90;40.90;;;;;;5013980;28;20440;-70
2020/12/23 06:55:48;;;;;;;1.63;0.80;;;13.00;39.80;;;;;;5014555;28;20045;-71
2020/12/23 06:58:38;;;;;;;2.78;0.98;;;13.00;39.70;;;;;;5012351;28;20140;-71
2020/12/23 07:01:22;;;;;;;2.65;0.90;;;12.90;39.50;;;;;;5011924;28;20046;-71
2020/12/23 07:03:49;;;;;;;2.55;0.80;;;13.00;39.80;;;;;;5012943;28;20060;-71
2020/12/23 07:06:29;;;;;;;2.75;0.80;;;13.00;38.70;;;;;;5015134;28;20048;-71
2020/12/23 07:08:56;;;;;;;1.02;0.70;;;13.10;38.10;;;;;;5011845;28;20046;-71
2020/12/23 07:11:28;;;;;;;1.65;0.50;;;13.10;36.90;;;;;;5011828;28;20056;-71
2020/12/23 07:13:58;;;;;;;1.95;0.50;;;13.10;38.20;;;;;;5011961;28;20092;-71
2020/12/23 07:16:26;;;;;;;1.10;0.65;;;13.00;39.10;;;;;;5015286;28;20050;-70
2020/12/23 07:18:54;;;;;;;1.77;1.02;;;12.90;40.40;;;;;;5010489;28;20141;-71
2020/12/23 07:21:25;;;;;;;1.95;0.90;;;12.90;41.60;;;;;;5010949;28;20112;-71
2020/12/23 07:23:56;;;;;;;0.93;0.70;;;12.80;43.00;;;;;;5010560;28;20042;-70
2020/12/23 07:26:24;;;;;;;1.45;0.68;;;12.70;43.60;;;;;;5013041;28;20060;-70
2020/12/23 07:28:52;;;;;;;0.88;0.57;;;12.80;43.60;;;;;;5011782;28;20049;-71
2020/12/23 07:31:19;;;;;;;1.23;0.80;;;12.70;43.70;;;;;;5000671;28;20184;-72
2020/12/23 07:33:46;;;;;;;1.08;0.70;;;12.70;43.60;;;;;;5012536;28;20042;-71
2020/12/23 07:36:14;;;;;;;1.27;1.00;;;12.70;44.30;;;;;;5013492;28;20129;-72
2020/12/23 07:38:41;;;;;;;1.88;1.30;;;12.70;45.60;;;;;;5012673;28;20104;-71
2020/12/23 07:41:11;;;;;;;1.45;0.95;;;12.70;43.70;;;;;;5011345;28;20056;-71
2020/12/23 07:43:39;;;;;;;1.92;1.00;;;12.70;43.60;;;;;;5013114;28;20057;-71
2020/12/23 07:46:08;;;;;;;1.13;0.77;;;12.80;40.50;;;;;;5012560;28;20133;-71
2020/12/23 07:48:35;;;;;;;1.13;0.63;;;12.90;39.40;;;;;;5013174;28;20136;-72
2020/12/23 07:51:02;;;;;;;3.08;1.02;;;12.90;39.30;;;;;;5013705;28;20058;-70
2020/12/23 07:53:30;;;;;;;1.70;0.73;;;12.90;38.70;;;;;;5012541;28;20053;-73
2020/12/23 07:55:59;;;;;;;1.08;0.77;;;13.00;38.70;;;;;;5005181;28;20409;-71
2020/12/23 07:58:26;;;;;;;1.95;0.70;;;13.00;39.40;;;;;;5012119;28;20042;-71
2020/12/23 08:00:54;;;;;;;1.10;0.90;;;13.00;37.60;;;;;;5001446;28;21302;-72
2020/12/23 08:03:25;;;;;;;1.73;0.70;;;13.10;36.50;;;;;;5006199;28;20137;-71
2020/12/23 08:06:03;;;;;;;3.85;2.47;;;13.20;35.10;;;;;;5005419;28;20045;-72
2020/12/23 08:08:30;;;;;;;1.10;0.57;;;13.20;34.30;;;;;;5010369;28;20756;-72
2020/12/23 08:10:57;;;;;;;1.75;0.70;;;13.30;33.60;;;;;;5013740;28;20604;-71
2020/12/23 08:13:27;;;;;;;1.13;0.50;;;13.20;34.30;;;;;;5011881;28;20045;-73
2020/12/23 08:16:09;;;;;;;1.02;0.70;;;13.30;33.00;;;;;;5008036;28;20138;-71
2020/12/23 08:18:38;;;;;;;1.05;0.60;;;13.30;33.60;;;;;;5014103;28;20053;-69
2020/12/23 08:21:09;;;;;;;0.85;0.63;;;13.30;32.90;;;;;;5012528;28;20056;-70
2020/12/23 08:23:36;;;;;;;3.45;1.00;;;13.40;32.00;;;;;;5008471;28;20056;-70
2020/12/23 08:26:04;;;;;;;0.70;0.50;;;13.40;32.00;;;;;;5010261;28;20059;-71
2020/12/23 08:28:34;;;;;;;1.58;0.98;;;13.40;31.60;;;;;;5009791;28;20061;-71
2020/12/23 08:31:02;;;;;;;2.75;0.90;;;13.40;30.60;;;;;;5008018;28;20056;-70
2020/12/23 08:33:31;;;;;;;1.73;0.90;;;13.40;31.40;;;;;;5010887;28;20706;-70
2020/12/23 08:36:00;;;;;;;0.80;0.63;;;13.50;31.10;;;;;;5002204;28;20067;-69
2020/12/23 08:38:41;;;;;;;1.98;0.80;;;13.50;30.60;;;;;;5008450;28;20463;-69
2020/12/23 08:41:14;;;;;;;0.98;0.70;;;13.50;30.10;;;;;;5011748;28;20048;-69
2020/12/23 08:43:45;;;;;;;2.92;0.80;;;13.50;30.40;;;;;;5008916;28;20045;-72
2020/12/23 08:46:13;;;;;;;2.00;0.77;;;13.50;29.60;;;;;;5011128;28;20060;-70
2020/12/23 08:48:47;;;;;;;1.02;0.60;;;13.60;29.20;;;;;;5010120;28;20078;-71
2020/12/23 08:51:18;;;;;;;2.28;1.13;;;13.60;28.60;;;;;;5012498;28;21172;-69
2020/12/23 08:53:45;;;;;;;1.13;0.90;;;13.60;28.60;;;;;;5004002;28;20050;-72
2020/12/23 08:56:22;;;;;;;1.13;0.80;;;13.70;28.00;;;;;;5008358;28;20061;-70
2020/12/23 08:58:50;;;;;;;1.45;0.90;;;13.70;28.00;;;;;;5009433;28;20145;-69
2020/12/23 09:01:22;;;;;;;4.07;1.00;;;13.70;28.00;;;;;;5007911;28;20050;-70
2020/12/23 09:03:58;;;;;;;1.77;0.90;;;13.80;28.10;;;;;;5005844;28;20707;-72
2020/12/23 09:06:25;;;;;;;1.40;0.75;;;13.70;28.10;;;;;;5009716;28;20046;-70
2020/12/23 09:09:09;;;;;;;1.08;0.70;;;13.70;27.70;;;;;;5008439;28;20397;-70
2020/12/23 09:11:41;;;;;;;1.40;0.65;;;13.80;27.10;;;;;;5010368;28;20046;-74
2020/12/23 09:14:20;;;;;;;1.08;0.80;;;13.80;27.40;;;;;;5000411;28;20054;-74
2020/12/23 09:16:58;;;;;;;1.80;1.30;;;13.90;27.10;;;;;;5008241;28;20487;-72
2020/12/23 09:19:49;;;;;;;0.90;0.70;;;13.90;26.70;;;;;;5010639;28;20049;-71
2020/12/23 09:22:41;;;;;;;1.70;0.85;;;13.90;26.90;;;;;;5009277;28;20445;-70
2020/12/23 09:25:22;;;;;;;1.60;0.93;;;14.00;26.70;;;;;;5004549;28;20492;-70
2020/12/23 09:27:50;;;;;;;3.50;1.83;;;14.00;27.50;;;;;;5006685;28;20058;-70
2020/12/23 09:30:31;;;;;;;1.95;1.23;;;14.00;26.90;;;;;;5009442;28;20466;-72
2020/12/23 09:32:58;;;;;;;1.88;1.00;;;14.00;26.80;;;;;;5012789;28;20056;-69
2020/12/23 09:35:27;;;;;;;2.63;0.98;;;14.00;25.60;;;;;;5003830;28;20050;-71
2020/12/23 09:38:06;;;;;;;1.50;0.73;;;14.10;25.50;;;;;;5011364;28;20067;-70
2020/12/23 09:40:33;;;;;;;2.05;0.82;;;14.10;25.30;;;;;;5009846;28;20447;-71
2020/12/23 09:43:01;;;;;;;2.15;1.00;;;14.10;25.30;;;;;;5008727;28;20053;-71
2020/12/23 09:45:27;;;;;;;3.95;1.02;;;14.10;25.70;;;;;;5004447;28;20057;-72
2020/12/23 09:47:54;;;;;;;1.50;0.88;;;14.20;25.30;;;;;;5011586;28;20057;-71
2020/12/23 09:50:21;;;;;;;1.80;1.13;;;14.20;25.00;;;;;;5008668;28;20049;-71
2020/12/23 09:52:49;;;;;;;1.67;0.90;;;14.30;25.00;;;;;;5008663;28;20054;-71
2020/12/23 09:55:16;;;;;;;1.65;1.00;;;14.30;24.50;;;;;;5002619;28;20045;-71
2020/12/23 09:57:43;;;;;;;1.00;0.77;;;14.30;24.60;;;;;;5006387;28;20045;-71
2020/12/23 10:00:09;;;;;;;1.80;1.00;;;14.40;24.40;;;;;;5006737;28;20057;-71
2020/12/23 10:02:36;;;;;;;2.40;1.02;;;14.40;23.60;;;;;;5004418;28;20042;-69
2020/12/23 10:05:03;;;;;;;3.65;1.50;;;14.40;23.70;;;;;;5002028;28;20056;-71
2020/12/23 10:07:31;;;;;;;2.10;0.85;;;14.40;23.70;;;;;;5007093;28;20049;-71
2020/12/23 10:09:58;;;;;;;1.40;0.90;;;14.30;23.80;;;;;;5009469;28;20056;-70
2020/12/23 10:12:25;;;;;;;1.10;0.98;;;14.30;24.10;;;;;;5004830;28;20042;-70
2020/12/23 10:14:52;;;;;;;0.75;0.65;;;14.30;24.30;;;;;;5002798;28;20041;-71
2020/12/23 10:17:19;;;;;;;2.70;1.00;;;14.30;23.90;;;;;;5009698;28;20042;-71
2020/12/23 10:19:46;;;;;;;0.63;0.60;;;14.30;24.40;;;;;;5008464;28;20496;-72
2020/12/23 10:22:13;;;;;;;0.90;0.80;;;14.20;24.40;;;;;;5009590;28;20056;-71
2020/12/23 10:24:40;;;;;;;2.33;0.85;;;14.20;24.30;;;;;;5004247;28;20052;-71
2020/12/23 10:27:07;;;;;;;0.90;0.70;;;14.20;24.70;;;;;;5011224;28;20053;-71
2020/12/23 10:29:34;;;;;;;1.80;0.90;;;14.20;24.60;;;;;;5010868;28;20056;-71
2020/12/23 10:32:01;;;;;;;1.50;0.82;;;14.20;26.00;;;;;;5013738;28;20054;-71
2020/12/23 10:34:28;;;;;;;1.95;0.98;;;14.10;25.90;;;;;;5004026;28;20056;-72
2020/12/23 10:36:55;;;;;;;2.63;0.90;;;14.20;26.00;;;;;;5008385;28;20056;-72
2020/12/23 10:39:22;;;;;;;0.82;0.73;;;14.10;26.20;;;;;;5008351;28;20049;-71
2020/12/23 10:41:52;;;;;;;1.90;0.98;;;14.10;27.60;;;;;;5010379;28;20057;-71
2020/12/23 10:44:21;;;;;;;3.22;1.20;;;14.10;27.10;;;;;;5002058;28;20423;-72
2020/12/23 10:46:52;;;;;;;2.70;0.85;;;14.10;27.60;;;;;;5008659;28;20123;-71
2020/12/23 10:49:18;;;;;;;1.20;0.88;;;14.10;27.20;;;;;;5006128;28;20057;-71
2020/12/23 10:51:49;;;;;;;1.30;0.98;;;14.10;27.40;;;;;;5006276;28;20049;-71
2020/12/23 10:54:16;;;;;;;4.47;1.38;;;14.10;26.90;;;;;;5002375;28;20053;-71
2020/12/23 10:56:43;;;;;;;1.42;1.10;;;14.10;27.20;;;;;;5006598;28;20046;-72
2020/12/23 10:59:10;;;;;;;2.20;1.60;;;14.10;26.90;;;;;;5007853;28;20060;-72
2020/12/23 11:01:37;;;;;;;2.80;1.33;;;14.10;27.60;;;;;;5010929;28;20342;-73
2020/12/23 11:04:04;;;;;;;7.82;5.25;;;14.10;27.60;;;;;;4999796;28;20476;-72
2020/12/23 11:06:32;;;;;;;5.55;3.70;;;14.10;27.40;;;;;;5008833;28;20060;-71
2020/12/23 11:08:59;;;;;;;3.17;2.05;;;14.20;27.00;;;;;;5014063;28;20153;-73
2020/12/23 11:11:26;;;;;;;3.58;1.95;;;14.20;27.20;;;;;;5008067;28;20065;-72
2020/12/23 11:13:53;;;;;;;4.72;1.90;;;14.20;26.70;;;;;;5006506;28;20056;-71
2020/12/23 11:16:21;;;;;;;2.65;1.77;;;14.30;27.60;;;;;;5007614;28;20455;-71
2020/12/23 11:18:48;;;;;;;2.00;1.30;;;14.20;27.40;;;;;;5010499;28;20057;-72
2020/12/23 11:21:15;;;;;;;6.38;1.60;;;14.20;27.60;;;;;;5008464;28;20045;-72
2020/12/23 11:23:42;;;;;;;1.65;1.10;;;14.10;30.20;;;;;;5004981;28;20052;-74
2020/12/23 11:26:14;;;;;;;2.20;1.65;;;14.00;32.40;;;;;;5006029;28;20050;-73
2020/12/23 11:28:52;;;;;;;3.42;1.67;;;14.00;32.20;;;;;;5009209;28;20054;-72
2020/12/23 11:31:19;;;;;;;3.63;1.60;;;14.00;32.50;;;;;;5008781;28;20042;-73
2020/12/23 11:33:45;;;;;;;3.15;1.85;;;13.90;33.30;;;;;;5012820;28;20041;-73
2020/12/23 11:36:14;;;;;;;3.85;1.50;;;14.00;32.00;;;;;;5009039;28;20046;-73
2020/12/23 11:38:42;;;;;;;2.78;1.38;;;14.00;31.90;;;;;;5013445;28;20053;-73
2020/12/23 11:41:08;;;;;;;1.70;1.00;;;14.10;30.00;;;;;;5012069;28;20045;-72
2020/12/23 11:43:35;;;;;;;1.15;0.90;;;14.10;29.30;;;;;;5014614;28;20136;-73
2020/12/23 11:46:03;;;;;;;1.95;1.00;;;14.10;29.60;;;;;;5015023;28;20045;-71
2020/12/23 11:48:31;;;;;;;2.08;1.10;;;14.10;29.80;;;;;;5013174;28;20050;-72
2020/12/23 11:50:58;;;;;;;1.60;1.10;;;14.10;30.90;;;;;;5015611;28;20144;-71
2020/12/23 11:53:26;;;;;;;1.55;1.33;;;14.10;32.00;;;;;;5012846;28;20045;-70
2020/12/23 11:55:53;;;;;;;1.55;1.05;;;14.10;30.00;;;;;;5007962;28;20049;-70
2020/12/23 11:58:20;;;;;;;3.00;1.98;;;14.20;29.30;;;;;;5014081;28;20084;-70
2020/12/23 12:00:48;;;;;;;11.90;7.30;;;14.20;31.00;;;;;;5014550;28;20098;-69
2020/12/23 12:03:15;;;;;;;3.45;2.00;;;14.20;30.40;;;;;;5008019;28;20046;-70
2020/12/23 12:05:42;;;;;;;2.03;0.95;;;14.20;29.60;;;;;;5009564;28;20048;-72
2020/12/23 12:08:09;;;;;;;1.08;0.98;;;14.10;30.30;;;;;;5012579;28;20049;-71
2020/12/23 12:10:54;;;;;;;1.33;1.00;;;14.10;30.40;;;;;;5010933;28;20104;-69
2020/12/23 12:13:21;;;;;;;2.25;1.25;;;14.10;29.80;;;;;;5011469;28;20049;-70
2020/12/23 12:15:48;;;;;;;1.85;1.30;;;14.10;30.10;;;;;;5009641;28;20456;-71
2020/12/23 12:18:15;;;;;;;2.50;1.77;;;14.00;30.20;;;;;;5010935;28;20078;-70
2020/12/23 12:20:42;;;;;;;2.05;1.55;;;14.00;30.10;;;;;;5014007;28;20100;-73
2020/12/23 12:23:09;;;;;;;1.95;1.20;;;14.00;29.80;;;;;;5012909;28;20049;-72
2020/12/23 12:25:36;;;;;;;1.05;0.95;;;14.00;30.90;;;;;;5007553;28;20049;-71
2020/12/23 12:28:04;;;;;;;1.50;0.95;;;13.90;30.00;;;;;;5016638;28;20140;-70
2020/12/23 12:30:31;;;;;;;2.10;0.95;;;13.90;30.70;;;;;;5012833;28;20056;-73
2020/12/23 12:32:58;;;;;;;3.15;1.15;;;13.90;31.70;;;;;;5009722;28;20046;-71
2020/12/23 12:35:25;;;;;;;2.20;1.05;;;13.90;32.80;;;;;;5008109;28;20492;-70
2020/12/23 12:37:52;;;;;;;3.08;1.20;;;13.90;32.50;;;;;;5014800;28;20056;-70
2020/12/23 12:40:19;;;;;;;3.55;0.90;;;13.90;33.10;;;;;;5011528;28;20049;-71
2020/12/23 12:42:46;;;;;;;4.35;1.40;;;13.90;33.10;;;;;;5013843;28;20412;-70
2020/12/23 12:45:15;;;;;;;1.52;0.95;;;13.90;34.10;;;;;;5008602;28;20038;-70
2020/12/23 12:47:44;;;;;;;2.45;1.10;;;13.80;34.90;;;;;;5010860;28;20049;-71
2020/12/23 12:50:11;;;;;;;1.00;0.80;;;13.80;33.00;;;;;;5010432;28;20054;-71
2020/12/23 12:52:38;;;;;;;4.00;1.05;;;13.80;33.60;;;;;;5009192;28;20127;-71
2020/12/23 12:55:05;;;;;;;3.05;1.48;;;13.80;32.70;;;;;;5004951;28;20217;-71